首页
METAR-TAF:

METAR-TAF

机场 :

勒克瑙, 印度

纬度: 26-45N, 经度: 080-53E, 海拔: 122米

当前天气观测

该预报发布于38分钟前的00:30 UTC
风速5节,风向
温度 32°C
湿度 56%
气压 999 hPa
能見度: 5000
霾,

METAR: VILK 170030Z 08005KT 5000 HZ NSC 32/22 Q0999 NOSIG

时间: 06:38 (01:08 UTC)

预报

该预报发布于2小时和8分钟前的23:00 UTC
预报有效从17日的 00点(UTC)到 18日的 06点(UTC)
风速2节,风向多变
能見度: 4000
散云层高于10000英尺
成为
从 17日的 04点(UTC)到 17日的 06点(UTC)
风速9节,风向西转西北
能見度: 5000
少量云层高于10000英尺
成为
从 17日的 07点(UTC)到 17日的 09点(UTC)
风速10节,风向西转西北
能見度: 5000
少量云层高于10000英尺
成为
从 17日的 22点(UTC)到 17日的 24点(UTC)
风速7节,风向西转西北
能見度: 4000
少量云层高于2000英尺
散云层高于10000英尺
成为
从 18日的 04点(UTC)到 18日的 06点(UTC)
风速8节,风向西北
能見度: 5000
散云层高于10000英尺
霾,

TAF: VILK 162300Z 1700/1806 VRB02KT 4000 HZ SCT100 BECMG 1704/1706 29009KT 5000 HZ FEW100 BECMG 1707/1709 30010KT 5000 HZ FEW100 BECMG 1722/1724 30007KT 4000 HZ FEW020 SCT100 BECMG 1804/1806 32008KT 5000 HZ SCT100

超过4000个机场的气象观测和天气预报(METAR&TAF报告)。

可查询的气象台以黄色和红色小点在地图上表示。

将鼠标移到小点上方,可查看气象台名称。

然后点击查看天气观测和预报。

如需切换地图:点击带黑十字的绿色按钮放大地图;点击带横线的绿色按钮缩小地图;或者点击绿色箭头查看邻近地区的地图。


METAR-TAF: